createdAt,value
2024-04-22T00:00:49.579Z,0.90
2024-04-22T00:05:57.732Z,0.93
2024-04-22T00:11:04.388Z,1.10
2024-04-22T00:16:07.748Z,1.10
2024-04-22T00:21:09.753Z,1.07
2024-04-22T00:26:12.006Z,1.03
2024-04-22T00:31:14.197Z,0.60
2024-04-22T00:36:16.606Z,0.73
2024-04-22T00:41:18.689Z,0.93
2024-04-22T00:46:21.260Z,1.00
2024-04-22T00:51:24.266Z,0.67
2024-04-22T00:56:30.281Z,0.73
2024-04-22T01:01:33.856Z,0.87
2024-04-22T01:06:36.929Z,0.57
2024-04-22T01:11:39.043Z,1.10
2024-04-22T01:16:41.196Z,0.60
2024-04-22T01:21:43.461Z,1.37
2024-04-22T01:26:47.913Z,0.70
2024-04-22T01:31:49.922Z,0.77
2024-04-22T01:36:52.109Z,0.77
2024-04-22T01:41:54.104Z,0.77
2024-04-22T01:46:56.214Z,0.70
2024-04-22T01:51:58.305Z,1.00
2024-04-22T01:57:00.935Z,0.60
2024-04-22T02:02:03.395Z,0.70
2024-04-22T02:07:05.441Z,0.80
2024-04-22T02:12:07.672Z,0.63
2024-04-22T02:17:09.766Z,0.70
2024-04-22T02:22:11.992Z,0.83
2024-04-22T02:27:13.997Z,0.70
2024-04-22T02:32:21.384Z,0.57
2024-04-22T02:42:25.524Z,0.83
2024-04-22T02:47:27.718Z,0.60
2024-04-22T02:52:29.894Z,0.50
2024-04-22T02:57:32.146Z,0.67
2024-04-22T03:02:34.313Z,0.83
2024-04-22T03:07:36.883Z,0.60
2024-04-22T03:12:39.166Z,0.50
2024-04-22T03:17:41.400Z,0.90
2024-04-22T03:22:43.540Z,0.40
2024-04-22T03:27:45.674Z,0.60
2024-04-22T03:32:47.757Z,0.93
2024-04-22T03:37:49.773Z,0.67
2024-04-22T03:42:51.839Z,0.60
2024-04-22T03:48:12.641Z,1.00
2024-04-22T03:53:14.684Z,1.27
2024-04-22T03:58:16.715Z,0.70
2024-04-22T04:03:18.940Z,0.80
2024-04-22T04:08:21.070Z,0.80
2024-04-22T04:13:23.154Z,0.70
2024-04-22T04:18:25.170Z,0.50
2024-04-22T04:23:27.194Z,0.73
2024-04-22T04:28:29.661Z,1.23
2024-04-22T04:33:31.864Z,0.63
2024-04-22T04:38:34.937Z,1.20
2024-04-22T04:43:37.048Z,0.80
2024-04-22T04:48:39.115Z,0.70
2024-04-22T04:53:41.185Z,0.50
2024-04-22T04:58:43.463Z,0.80
2024-04-22T05:03:45.636Z,0.90
2024-04-22T05:08:47.636Z,0.67
2024-04-22T05:13:49.735Z,0.70
2024-04-22T05:18:51.798Z,0.67
2024-04-22T05:23:56.280Z,0.77
2024-04-22T05:28:58.314Z,0.70
2024-04-22T05:34:19.054Z,0.70
2024-04-22T05:39:21.194Z,0.83
2024-04-22T05:44:23.410Z,0.60
2024-04-22T05:49:27.388Z,1.00
2024-04-22T05:54:29.495Z,1.03
2024-04-22T05:59:31.559Z,0.83
2024-04-22T06:04:33.689Z,0.57
2024-04-22T06:09:35.728Z,0.70
2024-04-22T06:14:38.139Z,0.57
2024-04-22T06:19:40.456Z,0.97
2024-04-22T06:24:42.658Z,1.20
2024-04-22T06:29:44.666Z,0.70
2024-04-22T06:34:47.736Z,0.50
2024-04-22T06:39:49.766Z,0.57
2024-04-22T06:44:52.094Z,0.80
2024-04-22T06:49:54.129Z,0.80
2024-04-22T06:54:56.235Z,0.90
2024-04-22T06:59:58.395Z,0.70
2024-04-22T07:05:00.622Z,0.63
2024-04-22T07:10:03.158Z,0.50
2024-04-22T07:15:06.307Z,1.00
2024-04-22T07:20:08.600Z,0.60
2024-04-22T07:25:10.789Z,0.53
2024-04-22T07:30:13.448Z,0.77
2024-04-22T07:35:16.011Z,0.40
2024-04-22T07:40:20.166Z,0.60
2024-04-22T07:45:25.353Z,0.73
2024-04-22T07:50:29.339Z,1.10
2024-04-22T07:55:31.813Z,0.60
2024-04-22T08:00:34.425Z,0.50
2024-04-22T08:05:36.723Z,0.63
2024-04-22T08:10:39.399Z,0.63
2024-04-22T08:15:41.652Z,0.50
2024-04-22T08:20:43.675Z,1.03
2024-04-22T08:25:45.831Z,0.80
2024-04-22T08:30:47.903Z,0.90
2024-04-22T08:35:50.077Z,0.70
2024-04-22T08:40:52.598Z,0.57
2024-04-22T08:45:54.755Z,0.40
2024-04-22T08:51:00.186Z,1.07
2024-04-22T08:56:02.540Z,0.50
2024-04-22T09:01:08.312Z,0.60
2024-04-22T09:06:11.316Z,0.43
2024-04-22T09:11:47.154Z,0.60
2024-04-22T09:16:45.368Z,0.47
2024-04-22T09:21:47.586Z,0.50
2024-04-22T09:26:50.462Z,0.30
2024-04-22T09:31:57.000Z,0.60
2024-04-22T09:37:01.046Z,0.50
2024-04-22T09:42:04.018Z,0.23
2024-04-22T09:47:07.609Z,0.43
2024-04-22T09:52:11.076Z,0.70
2024-04-22T09:57:13.675Z,0.50
2024-04-22T10:02:15.976Z,0.40
2024-04-22T10:07:19.619Z,0.63
2024-04-22T10:12:29.287Z,0.50
2024-04-22T10:17:31.544Z,0.20
2024-04-22T10:22:36.119Z,1.63
2024-04-22T10:27:39.447Z,0.67
2024-04-22T10:32:41.528Z,0.57
2024-04-22T10:37:43.732Z,0.57
2024-04-22T10:42:47.800Z,0.40
2024-04-22T10:48:05.069Z,0.70
2024-04-22T10:53:14.522Z,0.47
2024-04-22T10:58:16.751Z,0.50
2024-04-22T11:03:19.607Z,0.40
2024-04-22T11:08:21.841Z,0.40
2024-04-22T11:13:25.490Z,0.57
2024-04-22T11:18:27.557Z,1.30
2024-04-22T11:23:29.609Z,0.47
2024-04-22T11:28:32.224Z,0.50
2024-04-22T11:33:34.364Z,0.60
2024-04-22T11:38:36.473Z,0.50
2024-04-22T11:43:38.659Z,0.50
2024-04-22T11:48:40.866Z,0.40
2024-04-22T11:53:43.033Z,0.90
2024-04-22T11:58:45.130Z,0.30
2024-04-22T12:03:47.258Z,0.70
2024-04-22T12:08:49.335Z,0.50
2024-04-22T12:13:51.463Z,0.40
2024-04-22T12:18:54.057Z,0.43
2024-04-22T12:23:56.085Z,0.47
2024-04-22T12:28:58.193Z,0.60
2024-04-22T12:34:06.914Z,0.50
2024-04-22T12:39:14.491Z,0.83
2024-04-22T12:44:16.671Z,1.00
2024-04-22T12:49:37.312Z,0.73
2024-04-22T12:54:40.890Z,0.40
2024-04-22T12:59:42.994Z,0.50
2024-04-22T13:04:45.173Z,0.57
2024-04-22T13:09:47.404Z,0.60
2024-04-22T13:14:49.417Z,0.60
2024-04-22T13:19:51.478Z,0.60
2024-04-22T13:24:53.504Z,0.70
2024-04-22T13:29:57.461Z,0.70
2024-04-22T13:34:59.982Z,0.40
2024-04-22T13:40:02.108Z,0.57
2024-04-22T13:45:05.900Z,0.80
2024-04-22T13:50:08.092Z,0.60
2024-04-22T13:55:10.183Z,0.67
2024-04-22T14:00:14.687Z,1.27
2024-04-22T14:05:17.040Z,0.80
2024-04-22T14:10:19.218Z,0.93
2024-04-22T14:15:24.780Z,0.80
2024-04-22T14:20:32.645Z,0.80
2024-04-22T14:25:35.710Z,1.03
2024-04-22T14:30:37.942Z,1.53
2024-04-22T14:35:40.845Z,0.90
2024-04-22T14:40:43.034Z,1.17
2024-04-22T14:45:45.800Z,0.97
2024-04-22T14:50:52.080Z,0.97
2024-04-22T14:55:54.424Z,0.77
2024-04-22T15:00:56.638Z,0.87
2024-04-22T15:05:58.698Z,0.83
2024-04-22T15:11:04.926Z,0.87
2024-04-22T15:16:09.076Z,0.63
2024-04-22T15:21:11.205Z,0.80
2024-04-22T15:26:13.867Z,0.90
2024-04-22T15:31:16.629Z,0.60
2024-04-22T15:36:18.747Z,0.87
2024-04-22T15:41:20.964Z,0.77
2024-04-22T15:46:23.348Z,0.40
2024-04-22T15:51:25.518Z,0.50
2024-04-22T15:56:27.588Z,0.60
2024-04-22T16:01:29.790Z,0.90
2024-04-22T16:06:31.906Z,0.83
2024-04-22T16:11:34.381Z,0.70
2024-04-22T16:16:36.745Z,0.37
2024-04-22T16:21:38.847Z,0.90
2024-04-22T16:26:40.892Z,0.87
2024-04-22T16:31:43.403Z,1.13
2024-04-22T16:36:46.512Z,0.67
2024-04-22T16:41:48.548Z,1.00
2024-04-22T16:46:50.824Z,0.80
2024-04-22T16:51:53.013Z,0.60
2024-04-22T16:56:56.052Z,1.23
2024-04-22T17:01:58.155Z,0.60
2024-04-22T17:07:00.164Z,0.73
2024-04-22T17:12:02.168Z,0.77
2024-04-22T17:17:06.470Z,0.73
2024-04-22T17:22:09.986Z,0.60
2024-04-22T17:27:11.996Z,0.73
2024-04-22T17:32:14.217Z,0.90
2024-04-22T17:37:19.467Z,0.77
2024-04-22T17:42:22.691Z,0.80
2024-04-22T17:47:24.732Z,1.37
2024-04-22T17:52:26.881Z,1.10
2024-04-22T17:57:28.943Z,0.80
2024-04-22T18:02:31.077Z,0.90
2024-04-22T18:07:33.198Z,1.20
2024-04-22T18:12:35.921Z,1.40
2024-04-22T18:17:38.027Z,1.60
2024-04-22T18:22:44.418Z,1.20
2024-04-22T18:27:52.492Z,1.00
2024-04-22T18:32:54.590Z,1.57
2024-04-22T18:37:57.179Z,0.90
2024-04-22T18:42:59.174Z,1.13
2024-04-22T18:48:01.450Z,0.90
2024-04-22T18:53:03.675Z,1.30
2024-04-22T18:58:07.081Z,0.90
2024-04-22T19:03:09.197Z,1.30
2024-04-22T19:08:11.286Z,1.43
2024-04-22T19:13:44.051Z,1.50
2024-04-22T19:18:50.074Z,1.23
2024-04-22T19:23:55.490Z,1.43
2024-04-22T19:28:57.828Z,1.60
2024-04-22T19:33:59.945Z,1.17
2024-04-22T19:39:01.943Z,1.60
2024-04-22T19:44:04.129Z,1.40
2024-04-22T19:49:06.798Z,0.90
2024-04-22T19:54:09.212Z,1.10
2024-04-22T19:59:11.565Z,1.73
2024-04-22T20:04:13.948Z,1.20
2024-04-22T20:09:15.984Z,1.47
2024-04-22T20:14:18.177Z,1.30
2024-04-22T20:19:23.043Z,2.03
2024-04-22T20:24:25.347Z,1.90
2024-04-22T20:29:27.582Z,1.90
2024-04-22T20:34:29.918Z,1.80
2024-04-22T20:39:32.124Z,1.70
2024-04-22T20:44:34.162Z,1.43
2024-04-22T20:49:36.195Z,1.30
2024-04-22T20:54:38.282Z,1.20
2024-04-22T20:59:40.312Z,1.47
2024-04-22T21:04:45.978Z,1.03
2024-04-22T21:09:48.064Z,1.27
2024-04-22T21:14:50.211Z,1.87
2024-04-22T21:19:53.503Z,0.97
2024-04-22T21:24:55.654Z,1.60
2024-04-22T21:29:58.058Z,1.87
2024-04-22T21:35:00.161Z,1.33
2024-04-22T21:40:02.336Z,1.40
2024-04-22T21:45:05.289Z,1.53
2024-04-22T21:50:07.417Z,1.90
2024-04-22T21:55:09.626Z,1.27
2024-04-22T22:00:49.322Z,1.20
2024-04-22T22:06:28.811Z,1.10
2024-04-22T22:11:31.092Z,1.07
2024-04-22T22:16:33.179Z,1.50
2024-04-22T22:21:36.475Z,1.30
2024-04-22T22:26:39.993Z,1.70
2024-04-22T22:31:42.302Z,1.80
2024-04-22T22:36:44.317Z,1.50
2024-04-22T22:41:46.332Z,2.40
2024-04-22T22:46:48.473Z,2.60
2024-04-22T22:51:50.611Z,1.97
2024-04-22T22:56:59.851Z,1.90
2024-04-22T23:02:02.001Z,1.70
2024-04-22T23:07:04.670Z,1.80
2024-04-22T23:12:06.811Z,2.53
2024-04-22T23:17:09.405Z,2.13
2024-04-22T23:22:11.564Z,2.10
2024-04-22T23:27:14.539Z,1.60
2024-04-22T23:32:17.573Z,1.97
2024-04-22T23:37:19.880Z,2.80
2024-04-22T23:42:21.891Z,2.17
2024-04-22T23:47:23.954Z,1.60
2024-04-22T23:52:25.973Z,1.97
2024-04-22T23:57:28.007Z,1.87
